Item Display Status Inductive CT Sensor

Mooring Depth: 80 m

 

Deployed Sensor

  • Serial Number: 4401
  • NDBC Property Number: 25262
  • Start Date: 11/5/2018 (13:33:04 Z)
  • End Date: Currently Active
Water Temperature [°C]     6 entries per hour
Showing data from 11/12/2019 (07:00:00 Z) to 11/11/2019 (00:00:01 Z)
Previous Next [ Day | 3-Days | 7-Days ]
First Last
Prev [ Day | 3-Days | 7-Days ] Next
First Last

Start Time:     :
End Time:     :     
Time (in GMT) :00 :50 :40 :30 :20 :10
Previous Next [ Day | 3-Days | 7-Days ]
First Last
Prev [ Day | 3-Days | 7-Days ] Next
First Last


123 => good data
MM => data is determined as missing
-- => data not received/configured
Back to Top Back to Top
11/12/2019 07:00 to 6:10 19.885 20.201 20.011 19.966 19.948 19.893
11/12/2019 06:00 to 5:10 19.758 19.766 19.811 19.918 19.793 19.895
11/12/2019 05:00 to 4:10 19.871 19.716 19.736 19.891 19.792 19.950
11/12/2019 04:00 to 3:10 19.851 19.916 20.025 20.103 19.974 20.084
11/12/2019 03:00 to 2:10 19.911 19.952 19.833 19.721 19.828 20.041
11/12/2019 02:00 to 1:10 19.985 20.093 19.993 19.951 20.005 20.018
11/12/2019 01:00 to 0:10 20.233 20.069 20.046 19.945 19.903 19.824
11/12/2019 00:00 to 23:10 19.901 19.940 19.831 19.798 19.723 19.804
11/11/2019 23:00 to 22:10 19.813 19.688 19.709 19.630 19.642 19.621
11/11/2019 22:00 to 21:10 19.712 19.672 19.702 19.698 19.699 19.720
11/11/2019 21:00 to 20:10 19.677 19.758 19.702 19.646 19.584 19.602
11/11/2019 20:00 to 19:10 19.590 19.550 19.608 19.663 19.622 19.646
11/11/2019 19:00 to 18:10 19.658 19.622 19.638 19.628 19.640 19.629
11/11/2019 18:00 to 17:10 19.689 19.786 19.665 19.692 19.745 19.775
11/11/2019 17:00 to 16:10 19.724 19.842 19.852 19.762 19.791 19.750
11/11/2019 16:00 to 15:10 19.791 19.820 19.860 19.810 19.871 19.910
11/11/2019 15:00 to 14:10 19.937 20.083 20.209 20.472 20.013 --
11/11/2019 14:00 to 13:10 19.856 19.864 19.938 19.837 19.838 19.848
11/11/2019 13:00 to 12:10 19.833 19.786 19.809 19.827 19.821 19.917
11/11/2019 12:00 to 11:10 19.878 19.962 20.056 19.992 20.015 19.969
11/11/2019 11:00 to 10:10 19.978 20.008 20.052 19.971 19.938 19.909
11/11/2019 10:00 to 9:10 19.928 19.852 19.751 19.890 19.850 19.653
11/11/2019 09:00 to 8:10 19.740 19.491 19.382 19.535 19.342 19.693
11/11/2019 08:00 to 7:10 19.701 19.670 19.725 19.686 19.787 19.542
11/11/2019 07:00 to 6:10 19.769 19.901 19.864 19.922 20.056 19.987
11/11/2019 06:00 to 5:10 19.966 20.006 20.059 20.061 20.087 19.989
11/11/2019 05:00 to 4:10 20.051 19.853 19.954 20.073 20.048 20.103
11/11/2019 04:00 to 3:10 19.936 19.995 20.098 20.016 20.063 20.126
11/11/2019 03:00 to 2:10 20.089 20.059 20.165 20.244 20.257 20.165
11/11/2019 02:00 to 1:10 20.119 20.188 20.256 20.291 20.199 20.154
11/11/2019 01:00 to 0:10 20.391 20.387 20.382 20.329 20.296 20.256

 

 

 

Conductivity [S/m]     6 entries per hour
Showing data from 11/12/2019 (07:00:00 Z) to 11/11/2019 (00:00:01 Z)
Previous Next [ Day | 3-Days | 7-Days ]
First Last
Prev [ Day | 3-Days | 7-Days ] Next
First Last

Start Time:     :
End Time:     :     
Time (in GMT) :00 :50 :40 :30 :20 :10
Previous Next [ Day | 3-Days | 7-Days ]
First Last
Prev [ Day | 3-Days | 7-Days ] Next
First Last


123 => good data
MM => data is determined as missing
-- => data not received/configured
Back to Top Back to Top
11/12/2019 07:00 to 6:10 4.77335 4.80065 4.78314 4.78121 4.77743 4.77375
11/12/2019 06:00 to 5:10 4.76166 4.76280 4.76784 4.77632 4.76592 4.77475
11/12/2019 05:00 to 4:10 4.77256 4.75890 4.76048 4.77392 4.76571 4.77905
11/12/2019 04:00 to 3:10 4.77048 4.77594 4.78483 4.79190 4.78190 4.79098
11/12/2019 03:00 to 2:10 4.77641 4.77993 4.76867 4.75996 4.76830 4.78681
11/12/2019 02:00 to 1:10 4.78177 4.79145 4.78384 4.77936 4.78481 4.78509
11/12/2019 01:00 to 0:10 4.80533 4.78968 4.78795 4.77940 4.77579 4.77126
11/12/2019 00:00 to 23:10 4.77484 4.77902 4.76932 4.76645 4.75951 4.76730
11/11/2019 23:00 to 22:10 4.76761 4.75856 4.76027 4.75235 4.75360 4.75230
11/11/2019 22:00 to 21:10 4.75942 4.75622 4.75894 4.75854 4.75925 4.76053
11/11/2019 21:00 to 20:10 4.75719 4.76389 4.75852 4.75441 4.74999 4.75141
11/11/2019 20:00 to 19:10 4.75018 4.74919 4.75186 4.75646 4.75271 4.75509
11/11/2019 19:00 to 18:10 4.75585 4.75374 4.75519 4.75441 4.75601 4.75511
11/11/2019 18:00 to 17:10 4.75882 4.76751 4.75762 4.76015 4.76356 4.76680
11/11/2019 17:00 to 16:10 4.76225 4.77237 4.77335 4.76621 4.76773 4.76429
11/11/2019 16:00 to 15:10 4.76851 4.77105 4.77418 4.77010 4.77517 4.77900
11/11/2019 15:00 to 14:10 4.78126 4.79515 4.80561 4.82033 4.78775 4.78667
11/11/2019 14:00 to 13:10 4.77385 4.77475 4.78119 4.77237 4.77197 4.77339
11/11/2019 13:00 to 12:10 4.77240 4.76770 4.77050 4.77183 4.77249 4.78013
11/11/2019 12:00 to 11:10 4.77712 4.78441 4.79256 4.78695 4.79001 4.78431
11/11/2019 11:00 to 10:10 4.78509 4.78825 4.79220 4.78486 4.78207 4.78004
11/11/2019 10:00 to 9:10 4.78195 4.77330 4.76453 4.77788 4.77544 4.75115
11/11/2019 09:00 to 8:10 4.76372 4.73993 4.72969 4.74349 4.72685 4.76043
11/11/2019 08:00 to 7:10 4.76034 4.75703 4.76240 4.75960 4.76825 4.74537
11/11/2019 07:00 to 6:10 4.76749 4.78000 4.77551 4.78257 4.79456 4.78862
11/11/2019 06:00 to 5:10 4.78597 4.78935 4.79470 4.79506 4.79649 4.78841
11/11/2019 05:00 to 4:10 4.79161 4.77541 4.78402 4.79517 4.79340 4.79730
11/11/2019 04:00 to 3:10 4.78302 4.78933 4.79772 4.79126 4.79458 4.79992
11/11/2019 03:00 to 2:10 4.79748 4.79458 4.80405 4.81087 4.81108 4.80370
11/11/2019 02:00 to 1:10 4.80015 4.80580 4.81196 4.81414 4.80717 4.80375
11/11/2019 01:00 to 0:10 4.82389 4.82287 4.82318 4.81902 4.81506 4.81101

 

 

 

Salinity [psu]     6 entries per hour
Showing data from 11/12/2019 (07:00:00 Z) to 11/11/2019 (00:00:01 Z)
Previous Next [ Day | 3-Days | 7-Days ]
First Last
Prev [ Day | 3-Days | 7-Days ] Next
First Last

Start Time:     :
End Time:     :     
Time (in GMT) :00 :50 :40 :30 :20 :10
Previous Next [ Day | 3-Days | 7-Days ]
First Last
Prev [ Day | 3-Days | 7-Days ] Next
First Last


123 => good data
MM => data is determined as missing
-- => data not received/configured
Back to Top Back to Top
11/12/2019 07:00 to 6:10 34.92 34.88 34.89 34.91 34.90 34.91
11/12/2019 06:00 to 5:10 34.93 34.93 34.93 34.91 34.93 34.92
11/12/2019 05:00 to 4:10 34.92 34.94 34.93 34.92 34.93 34.91
11/12/2019 04:00 to 3:10 34.92 34.91 34.89 34.89 34.91 34.89
11/12/2019 03:00 to 2:10 34.92 34.91 34.92 34.94 34.92 34.90
11/12/2019 02:00 to 1:10 34.90 34.89 34.91 34.91 34.91 34.90
11/12/2019 01:00 to 0:10 34.89 34.90 34.90 34.92 34.92 34.95
11/12/2019 00:00 to 23:10 34.91 34.92 34.93 34.93 34.94 34.93
11/11/2019 23:00 to 22:10 34.93 34.96 34.95 34.96 34.96 34.96
11/11/2019 22:00 to 21:10 34.94 34.95 34.95 34.95 34.95 34.95
11/11/2019 21:00 to 20:10 34.96 34.94 34.95 34.96 34.97 34.97
11/11/2019 20:00 to 19:10 34.97 35.00 34.97 34.96 34.97 34.96
11/11/2019 19:00 to 18:10 34.96 34.97 34.97 34.97 34.98 34.98
11/11/2019 18:00 to 17:10 34.96 34.95 34.97 34.97 34.95 34.95
11/11/2019 17:00 to 16:10 34.96 34.94 34.94 34.96 34.95 34.95
11/11/2019 16:00 to 15:10 34.95 34.95 34.94 34.95 34.94 34.94
11/11/2019 15:00 to 14:10 34.94 34.93 34.91 34.81 34.93 34.93
11/11/2019 14:00 to 13:10 34.94 34.94 34.94 34.95 34.94 34.95
11/11/2019 13:00 to 12:10 34.95 34.95 34.96 34.95 34.96 34.94
11/11/2019 12:00 to 11:10 34.95 34.94 34.93 34.94 34.94 34.94
11/11/2019 11:00 to 10:10 34.93 34.94 34.93 34.94 34.94 34.95
11/11/2019 10:00 to 9:10 34.95 34.94 34.95 34.95 34.96 34.93
11/11/2019 09:00 to 8:10 34.96 34.97 34.98 34.96 34.99 34.97
11/11/2019 08:00 to 7:10 34.96 34.96 34.96 34.97 34.96 34.97
11/11/2019 07:00 to 6:10 34.96 34.96 34.95 34.96 34.95 34.96
11/11/2019 06:00 to 5:10 34.95 34.95 34.95 34.95 34.94 34.95
11/11/2019 05:00 to 4:10 34.93 34.96 34.95 34.94 34.94 34.93
11/11/2019 04:00 to 3:10 34.95 34.96 34.94 34.95 34.94 34.93
11/11/2019 03:00 to 2:10 34.94 34.94 34.93 34.92 34.92 34.93
11/11/2019 02:00 to 1:10 34.94 34.93 34.92 34.91 34.93 34.94
11/11/2019 01:00 to 0:10 34.91 34.90 34.91 34.92 34.92 34.92